createdAt,value
2019-06-07T00:00:47.662Z,9.43
2019-06-07T00:02:51.158Z,9.00
2019-06-07T00:04:54.644Z,8.60
2019-06-07T00:06:58.057Z,9.60
2019-06-07T00:09:01.501Z,10.07
2019-06-07T00:11:07.245Z,9.23
2019-06-07T00:13:12.126Z,9.27
2019-06-07T00:15:21.901Z,9.10
2019-06-07T00:17:20.992Z,9.30
2019-06-07T00:19:24.416Z,8.77
2019-06-07T00:22:12.831Z,9.77
2019-06-07T00:23:35.953Z,10.57
2019-06-07T00:25:39.400Z,10.53
2019-06-07T00:27:42.826Z,11.10
2019-06-07T00:29:46.243Z,10.30
2019-06-07T00:31:49.786Z,11.43
2019-06-07T00:33:53.230Z,10.30
2019-06-07T00:35:56.671Z,11.40
2019-06-07T00:38:00.280Z,10.63
2019-06-07T00:40:17.832Z,11.40
2019-06-07T00:42:11.467Z,10.63
2019-06-07T00:44:19.904Z,12.10
2019-06-07T00:46:25.130Z,12.27
2019-06-07T00:48:32.089Z,9.80
2019-06-07T00:50:31.714Z,9.90
2019-06-07T00:53:13.222Z,8.47
2019-06-07T00:54:40.445Z,8.70
2019-06-07T00:56:43.883Z,10.40
2019-06-07T00:58:47.400Z,9.03
2019-06-07T01:00:50.895Z,8.67
2019-06-07T01:02:54.478Z,8.37
2019-06-07T01:04:57.975Z,8.73
2019-06-07T01:07:01.480Z,8.17
2019-06-07T01:09:07.611Z,8.30
2019-06-07T01:11:11.031Z,8.40
2019-06-07T01:13:15.451Z,8.43
2019-06-07T01:15:28.888Z,8.53
2019-06-07T01:17:43.663Z,8.83
2019-06-07T01:19:37.480Z,8.80
2019-06-07T01:21:40.911Z,8.87
2019-06-07T01:24:07.939Z,8.63
2019-06-07T01:25:49.564Z,8.10
2019-06-07T01:27:53.028Z,8.03
2019-06-07T01:29:56.509Z,8.97
2019-06-07T01:31:59.944Z,9.50
2019-06-07T01:34:03.460Z,9.67
2019-06-07T01:36:06.960Z,9.00
2019-06-07T01:38:10.479Z,10.27
2019-06-07T01:40:14.148Z,11.00
2019-06-07T01:42:18.633Z,11.90
2019-06-07T01:44:26.016Z,10.07
2019-06-07T01:46:28.694Z,9.00
2019-06-07T01:48:48.456Z,8.97
2019-06-07T01:50:37.416Z,9.67
2019-06-07T01:52:40.921Z,9.73
2019-06-07T01:54:57.824Z,10.13
2019-06-07T01:56:49.770Z,10.53
2019-06-07T01:58:53.215Z,10.37
2019-06-07T02:00:56.647Z,10.07
2019-06-07T02:03:00.158Z,11.17
2019-06-07T02:05:07.311Z,10.90
2019-06-07T02:07:10.794Z,8.23
2019-06-07T02:09:14.320Z,8.83
2019-06-07T02:11:20.547Z,8.57
2019-06-07T02:13:23.756Z,9.20
2019-06-07T02:15:31.271Z,10.10
2019-06-07T02:17:33.352Z,8.20
2019-06-07T02:19:36.919Z,10.60
2019-06-07T02:21:40.451Z,9.17
2019-06-07T02:23:43.939Z,9.17
2019-06-07T02:25:50.688Z,11.73
2019-06-07T02:28:11.135Z,12.53
2019-06-07T02:29:59.472Z,11.07
2019-06-07T02:32:03.021Z,10.57
2019-06-07T02:34:06.496Z,12.03
2019-06-07T02:36:09.925Z,10.70
2019-06-07T02:38:13.433Z,9.93
2019-06-07T02:40:16.921Z,9.47
2019-06-07T02:42:25.219Z,11.67
2019-06-07T02:44:28.597Z,10.00
2019-06-07T02:46:40.017Z,11.30
2019-06-07T02:48:40.205Z,12.73
2019-06-07T02:50:41.039Z,11.53
2019-06-07T02:52:44.459Z,11.70
2019-06-07T02:54:47.910Z,10.63
2019-06-07T02:56:57.798Z,12.33
2019-06-07T02:58:56.587Z,10.80
2019-06-07T03:01:08.649Z,12.63
2019-06-07T03:03:05.293Z,12.30
2019-06-07T03:05:09.061Z,11.87
2019-06-07T03:07:12.727Z,11.17
2019-06-07T03:09:18.283Z,11.40
2019-06-07T03:11:28.166Z,9.53
2019-06-07T03:13:37.181Z,10.07
2019-06-07T03:15:49.607Z,12.07
2019-06-07T03:18:00.240Z,21.53
2019-06-07T03:20:06.168Z,11.80
2019-06-07T03:22:09.596Z,23.20
2019-06-07T03:24:13.846Z,25.97
2019-06-07T03:26:18.116Z,14.10
2019-06-07T03:28:22.318Z,25.83
2019-06-07T03:30:58.018Z,10.40
2019-06-07T03:32:36.551Z,11.33
2019-06-07T03:34:41.318Z,12.13
2019-06-07T03:36:41.327Z,14.03
2019-06-07T03:38:44.770Z,13.67
2019-06-07T03:40:48.356Z,10.50
2019-06-07T03:42:51.779Z,11.03
2019-06-07T03:44:55.230Z,10.77
2019-06-07T03:46:58.649Z,10.47
2019-06-07T03:49:02.568Z,10.60
2019-06-07T03:51:23.681Z,10.67
2019-06-07T03:53:11.668Z,10.93
2019-06-07T03:55:15.243Z,11.00
2019-06-07T03:57:18.672Z,10.43
2019-06-07T03:59:22.111Z,10.33
2019-06-07T04:01:25.582Z,10.27
2019-06-07T04:03:36.140Z,10.10
2019-06-07T04:05:38.787Z,10.17
2019-06-07T04:07:44.131Z,9.73
2019-06-07T04:09:44.470Z,9.57
2019-06-07T04:11:47.918Z,9.60
2019-06-07T04:13:51.540Z,10.07
2019-06-07T04:15:55.014Z,9.30
2019-06-07T04:18:02.260Z,10.47
2019-06-07T04:20:05.739Z,11.60
2019-06-07T04:22:09.200Z,18.73
2019-06-07T04:24:15.888Z,8.57
2019-06-07T04:26:19.409Z,8.90
2019-06-07T04:28:22.825Z,10.20
2019-06-07T04:30:42.002Z,9.83
2019-06-07T04:32:45.720Z,8.27
2019-06-07T04:34:49.157Z,8.30
2019-06-07T04:36:59.223Z,8.53
2019-06-07T04:39:00.662Z,8.17
2019-06-07T04:41:04.588Z,9.73
2019-06-07T04:43:08.099Z,8.83
2019-06-07T04:45:32.491Z,8.43
2019-06-07T04:47:18.937Z,8.87
2019-06-07T04:49:25.021Z,7.70
2019-06-07T04:51:30.518Z,8.87
2019-06-07T04:53:38.115Z,10.00
2019-06-07T04:55:41.763Z,9.23
2019-06-07T04:57:45.206Z,12.67
2019-06-07T05:01:53.788Z,9.47
2019-06-07T05:03:57.223Z,11.27
2019-06-07T05:06:00.692Z,10.03
2019-06-07T05:08:07.600Z,10.57
2019-06-07T05:10:09.755Z,11.60
2019-06-07T05:12:13.259Z,11.17
2019-06-07T05:14:16.722Z,12.67
2019-06-07T05:16:20.154Z,11.93
2019-06-07T05:18:23.610Z,14.33
2019-06-07T05:20:27.052Z,12.73
2019-06-07T05:22:31.619Z,14.43
2019-06-07T05:24:38.400Z,13.67
2019-06-07T05:26:42.798Z,13.03
2019-06-07T05:28:45.979Z,11.30
2019-06-07T05:31:07.440Z,12.00
2019-06-07T05:32:54.645Z,12.87
2019-06-07T05:34:58.186Z,14.67
2019-06-07T05:37:11.536Z,16.73
2019-06-07T05:39:07.889Z,17.33
2019-06-07T05:41:11.412Z,18.37
2019-06-07T05:43:25.690Z,21.17
2019-06-07T05:45:37.635Z,18.33
2019-06-07T05:47:44.416Z,18.93
2019-06-07T05:49:46.985Z,18.67
2019-06-07T05:51:49.712Z,19.13
2019-06-07T05:53:53.159Z,17.50
2019-06-07T05:55:56.598Z,17.77
2019-06-07T05:58:00.017Z,19.73
2019-06-07T06:00:05.618Z,20.67
2019-06-07T06:02:21.847Z,19.67
2019-06-07T06:04:14.310Z,19.03
2019-06-07T06:06:17.847Z,18.63
2019-06-07T06:08:21.734Z,18.17
2019-06-07T06:10:25.236Z,20.03
2019-06-07T06:12:35.235Z,19.67
2019-06-07T06:14:35.386Z,22.63
2019-06-07T06:16:39.874Z,18.93
2019-06-07T06:18:47.219Z,17.53
2019-06-07T06:21:11.786Z,19.03
2019-06-07T06:22:54.627Z,19.07
2019-06-07T06:25:30.606Z,19.97
2019-06-07T06:27:18.913Z,17.93
2019-06-07T06:29:08.488Z,17.60
2019-06-07T06:31:11.924Z,17.87
2019-06-07T06:33:30.601Z,20.23
2019-06-07T06:35:20.664Z,21.10
2019-06-07T06:37:24.185Z,19.20
2019-06-07T06:39:27.638Z,19.70
2019-06-07T06:41:45.661Z,17.40
2019-06-07T06:43:38.337Z,16.93
2019-06-07T06:45:42.828Z,19.03
2019-06-07T06:47:49.043Z,15.83
2019-06-07T06:49:54.220Z,18.43
2019-06-07T06:51:57.144Z,19.30
2019-06-07T06:54:00.585Z,18.83
2019-06-07T06:56:04.098Z,22.83
2019-06-07T06:58:07.542Z,18.40
2019-06-07T07:00:12.935Z,18.17
2019-06-07T07:02:16.359Z,20.33
2019-06-07T07:04:19.867Z,18.33
2019-06-07T07:06:26.496Z,20.60
2019-06-07T07:08:29.196Z,21.03
2019-06-07T07:10:42.765Z,20.23
2019-06-07T07:12:47.957Z,17.83
2019-06-07T07:14:52.975Z,18.57
2019-06-07T07:16:56.940Z,17.63
2019-06-07T07:19:00.375Z,19.33
2019-06-07T07:21:03.912Z,19.90
2019-06-07T07:23:07.714Z,18.70
2019-06-07T07:25:11.429Z,21.70
2019-06-07T07:27:14.894Z,21.50
2019-06-07T07:29:18.351Z,19.60
2019-06-07T07:31:21.930Z,21.43
2019-06-07T07:33:25.509Z,19.30
2019-06-07T07:35:29.090Z,16.87
2019-06-07T07:37:32.528Z,20.20
2019-06-07T07:39:35.961Z,20.63
2019-06-07T07:41:39.407Z,18.73
2019-06-07T07:43:45.705Z,18.60
2019-06-07T07:45:53.313Z,17.47
2019-06-07T07:48:08.299Z,18.93
2019-06-07T07:49:59.074Z,17.67
2019-06-07T07:52:02.814Z,17.07
2019-06-07T07:54:10.728Z,17.83
2019-06-07T07:56:11.463Z,16.70
2019-06-07T07:58:14.926Z,18.50
2019-06-07T08:00:50.209Z,17.30
2019-06-07T08:02:24.056Z,17.27
2019-06-07T08:05:12.341Z,18.80
2019-06-07T08:06:32.714Z,18.23
2019-06-07T08:08:36.153Z,20.67
2019-06-07T08:10:39.575Z,17.63
2019-06-07T08:13:00.717Z,18.30
2019-06-07T08:14:50.271Z,18.50
2019-06-07T08:16:54.481Z,18.47
2019-06-07T08:19:04.004Z,17.60
2019-06-07T08:21:21.119Z,18.53
2019-06-07T08:23:09.305Z,16.30
2019-06-07T08:25:13.172Z,16.80
2019-06-07T08:27:25.921Z,22.40
2019-06-07T08:29:21.855Z,16.77
2019-06-07T08:31:25.278Z,16.37
2019-06-07T08:33:29.005Z,19.67
2019-06-07T08:39:42.891Z,15.67
2019-06-07T08:41:59.270Z,19.47
2019-06-07T08:43:55.256Z,17.67
2019-06-07T08:46:02.274Z,17.60
2019-06-07T08:48:12.923Z,15.60
2019-06-07T08:50:09.605Z,19.77
2019-06-07T08:52:13.029Z,18.13
2019-06-07T08:54:22.810Z,15.47
2019-06-07T08:56:21.667Z,14.10
2019-06-07T08:58:25.105Z,18.77
2019-06-07T09:00:45.556Z,15.43
2019-06-07T09:02:34.707Z,14.57
2019-06-07T09:04:38.141Z,14.00
2019-06-07T09:07:02.465Z,14.83
2019-06-07T09:08:46.814Z,13.60
2019-06-07T09:10:50.347Z,15.00
2019-06-07T09:12:59.202Z,14.83
2019-06-07T09:15:12.777Z,13.37
2019-06-07T09:17:11.025Z,14.00
2019-06-07T09:19:11.022Z,14.73
2019-06-07T09:21:14.634Z,14.00
2019-06-07T09:23:18.348Z,15.43
2019-06-07T09:25:22.070Z,14.60
2019-06-07T09:27:26.348Z,13.03
2019-06-07T09:29:31.061Z,13.13
2019-06-07T09:31:51.717Z,14.13
2019-06-07T09:33:39.640Z,13.37
2019-06-07T09:35:44.699Z,14.77
2019-06-07T09:38:07.884Z,12.27
2019-06-07T09:39:53.468Z,14.23
2019-06-07T09:41:58.690Z,14.17
2019-06-07T09:44:18.994Z,15.43
2019-06-07T09:46:12.845Z,15.33
2019-06-07T09:48:16.472Z,13.47
2019-06-07T09:50:17.924Z,14.43
2019-06-07T09:52:21.492Z,14.33
2019-06-07T09:55:03.142Z,17.20
2019-06-07T09:56:30.239Z,13.33
2019-06-07T09:58:52.694Z,13.47
2019-06-07T10:00:41.990Z,12.30
2019-06-07T10:02:44.265Z,11.57
2019-06-07T10:04:47.819Z,14.07
2019-06-07T10:06:51.345Z,13.83
2019-06-07T10:11:03.205Z,14.00
2019-06-07T10:13:08.436Z,14.83
2019-06-07T10:15:11.992Z,12.43
2019-06-07T10:17:15.453Z,12.17
2019-06-07T10:19:18.992Z,11.83
2019-06-07T10:21:22.523Z,12.00
2019-06-07T10:23:25.942Z,11.27
2019-06-07T10:25:29.368Z,13.03
2019-06-07T10:27:32.888Z,9.87
2019-06-07T10:29:36.380Z,12.17
2019-06-07T10:31:39.844Z,10.77
2019-06-07T10:33:43.430Z,10.10
2019-06-07T10:35:46.911Z,12.13
2019-06-07T10:37:50.499Z,11.07
2019-06-07T10:39:53.995Z,9.97
2019-06-07T10:41:57.564Z,15.90
2019-06-07T10:44:01.093Z,10.60
2019-06-07T10:46:05.703Z,11.20
2019-06-07T10:48:09.948Z,9.60
2019-06-07T10:50:14.114Z,10.40
2019-06-07T10:52:17.699Z,10.07
2019-06-07T10:54:29.615Z,10.53
2019-06-07T10:56:26.401Z,11.07
2019-06-07T10:58:31.517Z,11.03
2019-06-07T11:00:35.078Z,15.77
2019-06-07T11:02:38.775Z,12.30
2019-06-07T11:04:42.213Z,10.67
2019-06-07T11:06:45.633Z,9.40
2019-06-07T11:08:50.544Z,7.93
2019-06-07T11:10:54.056Z,9.83
2019-06-07T11:12:57.501Z,9.47
2019-06-07T11:15:01.010Z,7.10
2019-06-07T11:17:05.162Z,8.07
2019-06-07T11:19:12.601Z,9.33
2019-06-07T11:21:14.422Z,7.37
2019-06-07T11:23:21.361Z,10.03
2019-06-07T11:25:25.264Z,8.27
2019-06-07T11:27:28.810Z,8.77
2019-06-07T11:29:32.386Z,8.00
2019-06-07T11:31:35.891Z,8.23
2019-06-07T11:33:39.629Z,8.60
2019-06-07T11:35:45.173Z,7.80
2019-06-07T11:37:49.743Z,8.70
2019-06-07T11:39:54.561Z,9.58
2019-06-07T11:41:58.184Z,8.50
2019-06-07T11:44:01.694Z,7.77
2019-06-07T11:46:05.210Z,7.50
2019-06-07T11:48:09.098Z,5.27
2019-06-07T11:50:13.726Z,9.95
2019-06-07T11:52:17.770Z,6.67
2019-06-07T11:54:21.388Z,7.87
2019-06-07T11:56:24.886Z,6.03
2019-06-07T11:58:28.385Z,7.17
2019-06-07T12:00:34.232Z,6.27
2019-06-07T12:02:37.004Z,6.57
2019-06-07T12:04:40.473Z,6.30
2019-06-07T12:06:43.889Z,6.70
2019-06-07T12:08:47.310Z,6.62
2019-06-07T12:10:50.836Z,6.75
2019-06-07T12:12:54.280Z,4.85
2019-06-07T12:14:57.784Z,6.73
2019-06-07T12:17:01.293Z,6.45
2019-06-07T12:19:05.003Z,7.35
2019-06-07T12:21:09.551Z,7.03
2019-06-07T12:23:14.175Z,6.77
2019-06-07T12:25:21.134Z,9.07
2019-06-07T12:27:22.971Z,5.78
2019-06-07T12:29:26.431Z,5.05
2019-06-07T12:31:29.850Z,5.78
2019-06-07T12:33:33.278Z,4.22
2019-06-07T12:35:36.732Z,3.77
2019-06-07T12:37:44.193Z,4.83
2019-06-07T12:39:45.306Z,4.28
2019-06-07T12:41:48.777Z,6.90
2019-06-07T12:43:52.256Z,7.43
2019-06-07T12:45:55.789Z,7.70
2019-06-07T12:47:59.282Z,5.05
2019-06-07T12:50:03.416Z,7.78
2019-06-07T12:52:06.968Z,5.53
2019-06-07T12:54:10.444Z,6.83
2019-06-07T12:56:15.558Z,4.15
2019-06-07T12:58:25.853Z,6.58
2019-06-07T13:00:24.558Z,4.12
2019-06-07T13:02:28.187Z,5.40
2019-06-07T13:04:31.689Z,4.05
2019-06-07T13:06:35.206Z,5.58
2019-06-07T13:08:38.889Z,5.28
2019-06-07T13:10:42.327Z,5.35
2019-06-07T13:12:48.020Z,6.70
2019-06-07T13:14:51.169Z,5.80
2019-06-07T13:16:54.617Z,4.87
2019-06-07T13:18:58.124Z,6.72
2019-06-07T13:21:01.623Z,5.83
2019-06-07T13:23:05.229Z,3.10
2019-06-07T13:25:09.508Z,3.60
2019-06-07T13:27:12.957Z,3.87
2019-06-07T13:29:16.506Z,5.22
2019-06-07T13:31:21.072Z,4.70
2019-06-07T13:33:25.829Z,4.12
2019-06-07T13:35:29.828Z,4.58
2019-06-07T13:37:33.328Z,4.12
2019-06-07T13:39:36.830Z,5.78
2019-06-07T13:41:42.827Z,5.20
2019-06-07T13:43:45.486Z,5.75
2019-06-07T13:45:48.915Z,5.00
2019-06-07T13:47:52.391Z,4.45
2019-06-07T13:49:55.822Z,5.65
2019-06-07T13:51:59.264Z,4.05
2019-06-07T13:54:03.056Z,4.83
2019-06-07T13:56:06.506Z,4.83
2019-06-07T13:58:09.977Z,3.65
2019-06-07T14:00:13.919Z,6.20
2019-06-07T14:02:18.552Z,5.47
2019-06-07T14:04:23.152Z,6.25
2019-06-07T14:06:28.075Z,3.80
2019-06-07T14:08:31.841Z,6.62
2019-06-07T14:10:35.339Z,3.87
2019-06-07T14:12:38.785Z,4.70
2019-06-07T14:14:42.309Z,5.67
2019-06-07T14:16:45.737Z,5.87
2019-06-07T14:18:49.304Z,4.35
2019-06-07T14:20:52.736Z,3.55
2019-06-07T14:22:56.159Z,7.03
2019-06-07T14:24:59.612Z,5.20
2019-06-07T14:27:08.703Z,3.40
2019-06-07T14:29:12.384Z,8.98
2019-06-07T14:31:15.907Z,6.75
2019-06-07T14:33:23.080Z,5.05
2019-06-07T14:35:24.647Z,3.42
2019-06-07T14:37:29.001Z,6.35
2019-06-07T14:39:33.551Z,7.65
2019-06-07T14:41:37.125Z,5.15
2019-06-07T14:43:40.669Z,4.47
2019-06-07T14:45:44.289Z,6.08
2019-06-07T14:47:47.695Z,8.85
2019-06-07T14:49:51.235Z,6.35
2019-06-07T14:51:54.655Z,8.73
2019-06-07T14:53:58.078Z,7.50
2019-06-07T14:56:01.533Z,4.47
2019-06-07T14:58:05.048Z,5.08
2019-06-07T15:00:11.709Z,3.55
2019-06-07T15:02:15.678Z,3.70
2019-06-07T15:04:19.193Z,5.15
2019-06-07T15:06:22.683Z,4.15
2019-06-07T15:08:26.505Z,7.12
2019-06-07T15:10:31.976Z,4.28
2019-06-07T15:12:35.390Z,4.22
2019-06-07T15:14:38.886Z,5.70
2019-06-07T15:16:42.384Z,5.90
2019-06-07T15:18:46.110Z,6.50
2019-06-07T15:20:49.649Z,5.58
2019-06-07T15:22:53.271Z,3.75
2019-06-07T15:24:56.716Z,5.28
2019-06-07T15:27:00.216Z,4.58
2019-06-07T15:29:03.720Z,4.58
2019-06-07T15:31:08.744Z,4.20
2019-06-07T15:33:12.323Z,4.65
2019-06-07T15:35:16.317Z,5.17
2019-06-07T15:37:19.764Z,4.92
2019-06-07T15:39:23.183Z,3.85
2019-06-07T15:41:26.633Z,7.33
2019-06-07T15:43:31.104Z,6.40
2019-06-07T15:45:35.550Z,6.33
2019-06-07T15:47:40.641Z,6.83
2019-06-07T15:49:44.268Z,4.80
2019-06-07T15:51:47.713Z,3.42
2019-06-07T15:53:51.291Z,4.92
2019-06-07T15:55:54.819Z,6.67
2019-06-07T15:57:58.249Z,3.75
2019-06-07T16:00:01.781Z,4.35
2019-06-07T16:02:05.436Z,3.47
2019-06-07T16:04:08.949Z,6.15
2019-06-07T16:06:12.449Z,4.47
2019-06-07T16:08:15.900Z,4.17
2019-06-07T16:10:19.800Z,3.08
2019-06-07T16:12:23.253Z,3.12
2019-06-07T16:14:26.687Z,3.87
2019-06-07T16:16:30.137Z,5.87
2019-06-07T16:18:35.135Z,4.37
2019-06-07T16:20:39.596Z,4.50
2019-06-07T16:22:43.969Z,5.05
2019-06-07T16:24:47.590Z,3.90
2019-06-07T16:26:51.056Z,3.08
2019-06-07T16:28:57.193Z,3.00
2019-06-07T16:30:59.803Z,3.15
2019-06-07T16:33:03.268Z,5.72
2019-06-07T16:35:08.551Z,5.40
2019-06-07T16:37:12.035Z,2.83
2019-06-07T16:39:15.539Z,2.62
2019-06-07T16:41:18.972Z,3.08
2019-06-07T16:43:22.442Z,6.25
2019-06-07T16:45:26.005Z,2.52
2019-06-07T16:47:29.462Z,4.20
2019-06-07T16:49:32.981Z,3.90
2019-06-07T16:51:36.986Z,5.75
2019-06-07T16:53:40.526Z,4.22
2019-06-07T16:55:44.816Z,4.97
2019-06-07T16:57:49.234Z,3.67
2019-06-07T16:59:52.884Z,4.17
2019-06-07T17:01:56.338Z,4.50
2019-06-07T17:03:59.870Z,4.72
2019-06-07T17:06:03.462Z,6.47
2019-06-07T17:08:07.067Z,4.17
2019-06-07T17:10:12.661Z,3.12
2019-06-07T17:12:16.093Z,5.95
2019-06-07T17:14:19.582Z,6.47
2019-06-07T17:16:23.000Z,6.60
2019-06-07T17:18:26.427Z,5.97
2019-06-07T17:20:33.764Z,6.65
2019-06-07T17:22:38.958Z,3.40
2019-06-07T17:24:43.274Z,5.17
2019-06-07T17:26:47.680Z,9.13
2019-06-07T17:28:51.306Z,4.62
2019-06-07T17:30:54.756Z,6.97
2019-06-07T17:32:59.610Z,4.70
2019-06-07T17:35:03.232Z,3.33
2019-06-07T17:37:09.320Z,4.05
2019-06-07T17:39:12.747Z,7.70
2019-06-07T17:41:16.190Z,4.58
2019-06-07T17:43:19.642Z,4.75
2019-06-07T17:45:23.368Z,3.65
2019-06-07T17:47:26.815Z,4.67
2019-06-07T17:49:30.271Z,3.98
2019-06-07T17:51:33.728Z,4.75
2019-06-07T17:53:37.224Z,6.28
2019-06-07T17:55:41.984Z,6.08
2019-06-07T17:57:46.536Z,4.72
2019-06-07T17:59:50.604Z,4.60
2019-06-07T18:02:13.501Z,8.40
2019-06-07T18:03:59.298Z,5.25
2019-06-07T18:06:03.476Z,4.70
2019-06-07T18:08:06.981Z,6.08
2019-06-07T18:10:12.210Z,4.45
2019-06-07T18:12:15.667Z,3.70
2019-06-07T18:14:19.188Z,12.28
2019-06-07T18:16:22.651Z,5.75
2019-06-07T18:18:26.196Z,3.83
2019-06-07T18:20:29.636Z,5.47
2019-06-07T18:22:33.093Z,5.45
2019-06-07T18:24:36.523Z,3.55
2019-06-07T18:26:40.139Z,8.28
2019-06-07T18:28:43.780Z,4.00
2019-06-07T18:30:48.540Z,5.85
2019-06-07T18:32:52.963Z,5.62
2019-06-07T18:34:56.528Z,4.97
2019-06-07T18:37:00.021Z,6.20
2019-06-07T18:39:04.973Z,4.20
2019-06-07T18:41:08.469Z,8.20
2019-06-07T18:43:11.987Z,6.75
2019-06-07T18:45:15.655Z,8.77
2019-06-07T18:47:19.114Z,4.53
2019-06-07T18:49:22.545Z,4.77
2019-06-07T18:51:26.003Z,6.20
2019-06-07T18:53:29.514Z,11.63
2019-06-07T18:55:32.951Z,6.60
2019-06-07T18:57:36.405Z,8.17
2019-06-07T18:59:40.144Z,6.50
2019-06-07T19:01:43.598Z,10.17
2019-06-07T19:03:48.627Z,10.23
2019-06-07T19:05:52.336Z,19.07
2019-06-07T19:07:56.705Z,17.57
2019-06-07T19:10:00.252Z,4.70
2019-06-07T19:12:03.690Z,9.93
2019-06-07T19:14:07.131Z,10.23
2019-06-07T19:16:10.559Z,4.20
2019-06-07T19:18:14.014Z,9.90
2019-06-07T19:20:19.541Z,5.77
2019-06-07T19:22:22.992Z,5.53
2019-06-07T19:24:26.430Z,5.83
2019-06-07T19:26:29.972Z,4.33
2019-06-07T19:28:33.503Z,6.70
2019-06-07T19:30:37.003Z,3.70
2019-06-07T19:32:40.491Z,7.40
2019-06-07T19:34:43.952Z,4.03
2019-06-07T19:36:49.021Z,9.17
2019-06-07T19:38:53.852Z,3.17
2019-06-07T19:40:57.989Z,3.73
2019-06-07T19:43:03.902Z,7.50
2019-06-07T19:45:31.468Z,3.40
2019-06-07T19:47:12.428Z,4.03
2019-06-07T19:49:15.880Z,5.33
2019-06-07T19:51:20.394Z,6.03
2019-06-07T19:53:24.035Z,1.60
2019-06-07T19:55:27.478Z,3.53
2019-06-07T19:57:30.964Z,3.53
2019-06-07T19:59:34.423Z,3.73
2019-06-07T20:01:37.986Z,2.40
2019-06-07T20:03:41.445Z,4.20
2019-06-07T20:05:44.870Z,2.50
2019-06-07T20:07:48.463Z,3.53
2019-06-07T20:09:52.059Z,2.90
2019-06-07T20:11:56.449Z,3.63
2019-06-07T20:14:00.758Z,1.47
2019-06-07T20:16:05.144Z,2.83
2019-06-07T20:18:08.704Z,8.13
2019-06-07T20:20:13.788Z,5.13
2019-06-07T20:22:17.222Z,2.27
2019-06-07T20:24:27.079Z,2.40
2019-06-07T20:26:26.115Z,1.40
2019-06-07T20:28:29.555Z,3.00
2019-06-07T20:30:33.011Z,2.37
2019-06-07T20:32:36.488Z,4.67
2019-06-07T20:34:44.125Z,2.77
2019-06-07T20:36:45.934Z,2.07
2019-06-07T20:38:49.554Z,5.93
2019-06-07T20:40:53.011Z,4.70
2019-06-07T20:42:57.416Z,3.17
2019-06-07T20:45:02.144Z,1.60
2019-06-07T20:47:06.246Z,2.60
2019-06-07T20:49:09.766Z,3.80
2019-06-07T20:51:13.231Z,2.33
2019-06-07T20:53:16.929Z,4.57
2019-06-07T20:55:20.376Z,0.80
2019-06-07T20:57:23.883Z,3.13
2019-06-07T20:59:27.346Z,1.17
2019-06-07T21:01:30.798Z,1.53
2019-06-07T21:03:34.481Z,2.57
2019-06-07T21:05:37.953Z,2.30
2019-06-07T21:07:41.391Z,3.80
2019-06-07T21:09:44.840Z,2.87
2019-06-07T21:11:48.354Z,2.37
2019-06-07T21:13:51.883Z,2.23
2019-06-07T21:15:55.342Z,1.43
2019-06-07T21:18:00.170Z,1.67
2019-06-07T21:20:07.078Z,3.63
2019-06-07T21:22:10.967Z,1.73
2019-06-07T21:24:14.446Z,1.53
2019-06-07T21:26:17.900Z,1.37
2019-06-07T21:28:21.320Z,3.73
2019-06-07T21:30:24.765Z,1.50
2019-06-07T21:32:28.228Z,0.93
2019-06-07T21:34:31.730Z,4.93
2019-06-07T21:36:35.216Z,2.33
2019-06-07T21:38:38.679Z,1.07
2019-06-07T21:40:42.115Z,0.90
2019-06-07T21:42:45.830Z,1.83
2019-06-07T21:44:49.263Z,2.53
2019-06-07T21:46:52.714Z,6.17
2019-06-07T21:48:56.214Z,2.13
2019-06-07T21:50:59.634Z,1.90
2019-06-07T21:53:04.421Z,1.20
2019-06-07T21:55:09.219Z,1.57
2019-06-07T21:57:13.218Z,0.77
2019-06-07T21:59:16.791Z,2.57
2019-06-07T22:01:22.555Z,1.20
2019-06-07T22:03:26.124Z,1.00
2019-06-07T22:05:29.576Z,0.90
2019-06-07T22:07:33.017Z,2.40
2019-06-07T22:09:36.546Z,1.00
2019-06-07T22:11:40.048Z,1.20
2019-06-07T22:13:43.747Z,3.20
2019-06-07T22:15:47.247Z,1.07
2019-06-07T22:17:50.706Z,1.30
2019-06-07T22:19:54.120Z,1.57
2019-06-07T22:22:02.452Z,1.83
2019-06-07T22:24:02.881Z,1.27
2019-06-07T22:26:07.072Z,5.50
2019-06-07T22:28:10.713Z,1.63
2019-06-07T22:30:14.614Z,2.27
2019-06-07T22:32:19.147Z,3.17
2019-06-07T22:34:22.983Z,3.17
2019-06-07T22:36:26.404Z,3.07
2019-06-07T22:38:30.288Z,0.90
2019-06-07T22:40:33.708Z,2.73
2019-06-07T22:42:37.388Z,6.10
2019-06-07T22:44:40.826Z,2.03
2019-06-07T22:46:44.261Z,1.20
2019-06-07T22:48:47.794Z,4.30
2019-06-07T22:50:51.291Z,2.87
2019-06-07T22:52:54.711Z,1.73
2019-06-07T22:54:58.148Z,5.10
2019-06-07T22:57:03.247Z,2.90
2019-06-07T22:59:07.958Z,4.20
2019-06-07T23:01:12.556Z,1.63
2019-06-07T23:03:16.811Z,1.70
2019-06-07T23:05:20.340Z,2.17
2019-06-07T23:07:23.774Z,5.63
2019-06-07T23:09:27.325Z,2.67
2019-06-07T23:11:30.808Z,4.23
2019-06-07T23:13:34.330Z,3.00
2019-06-07T23:15:37.784Z,1.43
2019-06-07T23:17:41.224Z,1.27
2019-06-07T23:19:44.696Z,1.67
2019-06-07T23:21:48.118Z,2.30
2019-06-07T23:23:51.554Z,1.50
2019-06-07T23:25:55.068Z,1.40
2019-06-07T23:27:58.632Z,3.23
2019-06-07T23:30:08.471Z,1.20
2019-06-07T23:32:07.380Z,1.33
2019-06-07T23:34:10.858Z,1.63
2019-06-07T23:36:15.054Z,1.97
2019-06-07T23:38:19.200Z,2.50
2019-06-07T23:40:22.717Z,1.77
2019-06-07T23:42:26.229Z,2.40
2019-06-07T23:44:29.684Z,2.00
2019-06-07T23:46:33.131Z,1.40
2019-06-07T23:48:36.567Z,3.17
2019-06-07T23:50:40.016Z,3.37
2019-06-07T23:52:43.452Z,2.07
2019-06-07T23:54:46.878Z,1.73
2019-06-07T23:56:50.319Z,3.30
2019-06-07T23:58:53.754Z,3.20
